Startpagina
METAR-TAF:

METAR-TAF

Vliegvelden :

Craig, Colorado, Verenigde Staten

breedte: 40-29-36N, lengte: 107-31-25W, hoogte: 1888 m

Actueel weer

Dit bericht is 22 minuten geleden gemaakt, om 20:53 UTC
Weinig wind
Temperatuur -2°C
Vochtigheid 86%
Druk 1023 hPa
Zicht: 16.1 km
Gebroken wolken op 3100 ft
Geheel bewolkt op 4200 ft
onbekend

METAR: KCAG 232053Z AUTO 00000KT 10SM UP BKN031 OVC042 M02/M04 A3020 RMK AO2 UPB40 SLP272 P0000 60000 T10221044 58015

Tijdstip: 14:15 (21:15 UTC)


TAF: ontbreekt

Waarnemingen en weersverwachtingen van meer dan 4000 vliegvelden (METAR en TAF).

De beschikbare stations zijn de gele en rode punten op de kaart.

Ga met uw muis naar het station om de naam te zien.

Klik dan om waarnemingen en weersverwachtingen te zien.

kaart wijzigen: klik op de groene knoppen met een zwart kruis om in te zoomen, op de groene knop met een streepje om uit te zoomen of op de groene pijlen voor aangrenzende kaarten.


METAR-TAF: